Terminal Aerodrome Forecast
Issued by NWS Charleston, WV

Current Version | Previous Version | Text Only | Print | Product List | Glossary Off
Versions: 1 2 3 4 5 6 7 8 9 10 11 12 13 14 15 16 17 18 19 20 21 22 23 24 25

000
FTUS41 KRLX 200500
TAFBKW
TAF
KBKW 200523Z 2006/2106 15005KT P6SM OVC050
     FM200900 15005KT 6SM BR OVC040
     FM201100 14005KT P6SM BKN008
     FM201500 15007KT P6SM BKN015
     FM201700 15007KT P6SM BKN035=

USA.gov is the U.S. government's official web portal to all federal, state and local government web resources and services.